METAR AND TAF INFORMATION


GMTT 180530Z 09006KT 9999 FEW040 12/10 Q1016 NOSIG
GMTT 180500Z 10007KT 9999 FEW040 12/10 Q1016 NOSIG
TAF GMTT 180500Z 1806/1912 10006KT 9999 SCT040 TEMPO 1809/1815 4000 RA PROB30 TEMPO 1901/1906 4000 BR

 AIRPORT MAP

 RUNWAY INFORMATION
Runway 07 Runway length 6562 ft Runway width 98 ft
Runway elevation 0 ft Runway displaced threshold 0 ft Runway heading 69
Runway 25 Runway length 6562 ft Runway width 98 ft
Runway elevation 0 ft Runway displaced threshold 0 ft Runway heading 249
Runway 10 Runway length 11483 ft Runway width 148 ft
Runway elevation 20 ft Runway displaced threshold 0 ft Runway heading 96
Runway 28 Runway length 11483 ft Runway width 148 ft
Runway elevation 62 ft Runway displaced threshold 1640 ft Runway heading 276

 AIRPORT FREQUENCIES
Type APP Name TANGER APP Frequency 121.2 MHZ
Type TWR Name TANGER TWR Frequency 119.5 MHZ

 AIRPORT NEAR NAVIGATION AIDS
Type VOR-DME Name Tanger Frequency 115900 KHZ